Reynolds Plantation, Georgia
Current Conditions -  °F | °C
As of 10:15 PM on Saturday 25 Oct 2014 (Local Time) from K3J7 Reporting Station
Clear Clear  
Wind Chill: 64°   Ceiling: Unl
Heat Index: 64°   Visibility: 10mi
Dew Point: 50°   Wind: 0mph
Humidity: 59%   Direction: NA
Pressure: 29.98"   Gusts: NA
Location:  33.5492°N, 83.1798°W
Report Text: K3J7 260215Z AUTO 00000KT 10SM CLR 18/10 A2998 RMK AO2
Loading
Personal Weather Stations






























Interactive Weather Map
Tropical Storm Tracking
New forecast layout! Learn more

10-Day Weather Forecast

Advertisements
Track Severe Weather on mobile